OH93 weather

Darby Airport
Milford Center, Ohio, United States

Public forecast

Using degrees Fahrenheit for public forecast. Weather courtesy of forecast.io.

METAR (pilot weather report)

Closest report is Union County Airport, 5.4 nm (9.9 km) NNE. Retrieved 2019/05/20 00:35 UTC (23 minutes ago):

KMRT 200035Z AUTO 19004KT 10SM BKN038 19/17 A2982 RMK AO2 P0001 T01850173

TAF (pilot weather forecast)

Forecast is more than 12 hours old.

Closest forecast is John Glenn Columbus International Airport, 24.4 nm (45.3 km) ESE. Retrieved 2019/05/19 00:33 UTC (1 day ago):

TAF KCMH 192330Z 2000/2024 24010KT P6SM -SHRA OVC050 FM200200 22010KT P6SM BKN040 FM200300 25010KT P6SM SCT040 BKN080 FM201000 25009KT P6SM SCT020 FM201600 27012G22KT P6SM BKN035